Time;durP1;ratioP1;P1;durP2;ratioP2;P2;SDS_P1;SDS_P2;PMS_P1;PMS_P2;Temp;Humidity;BMP_temperature;BMP_pressure;BME280_temperature;BME280_humidity;BME280_pressure;Samples;Min_cycle;Max_cycle;Signal;HPM_P1;HPM_P2
2022/05/03 00:01:25;;;;;;;;;;;24.30;36.10;;;;;;5107949;28;19936;-67
2022/05/03 00:04:04;;;;;;;;;;;24.30;36.10;;;;;;5107517;28;19924;-66
2022/05/03 00:06:41;;;;;;;;;;;24.30;36.10;;;;;;5107715;28;19959;-67
2022/05/03 00:09:08;;;;;;;;;;;24.30;36.10;;;;;;5107807;28;20026;-67
2022/05/03 00:11:51;;;;;;;;;;;24.30;36.10;;;;;;5107673;28;19949;-66
2022/05/03 00:14:27;;;;;;;;;;;24.30;36.10;;;;;;5107490;28;19927;-66
2022/05/03 00:16:55;;;;;;;;;;;24.30;36.10;;;;;;5107598;28;20024;-66
2022/05/03 00:19:22;;;;;;;;;;;24.30;36.10;;;;;;5107774;28;19924;-67
2022/05/03 00:21:49;;;;;;;;;;;24.20;36.10;;;;;;5106993;28;20145;-67
2022/05/03 00:24:17;;;;;;;;;;;24.30;36.70;;;;;;5108236;28;19968;-67
2022/05/03 00:26:44;;;;;;;;;;;24.30;36.10;;;;;;5102637;28;20225;-67
2022/05/03 00:29:11;;;;;;;;;;;24.30;36.20;;;;;;5107655;28;20086;-67
2022/05/03 00:31:38;;;;;;;;;;;24.20;36.10;;;;;;5106595;28;19966;-67
2022/05/03 00:34:06;;;;;;;;;;;24.20;36.10;;;;;;5107504;28;19967;-66
2022/05/03 00:36:33;;;;;;;;;;;24.20;36.10;;;;;;5106799;28;19924;-66
2022/05/03 00:38:59;;;;;;;;;;;24.20;36.10;;;;;;5106863;28;19923;-66
2022/05/03 00:41:44;;;;;;;;;;;24.20;36.10;;;;;;5107043;28;19977;-67
2022/05/03 00:47:13;;;;;;;;;;;24.20;36.20;;;;;;5107186;28;19976;-66
2022/05/03 00:49:48;;;;;;;;;;;24.20;36.20;;;;;;5107520;28;20328;-66
2022/05/03 00:52:23;;;;;;;;;;;24.30;36.20;;;;;;5106556;28;20303;-66
2022/05/03 00:55:10;;;;;;;;;;;24.20;36.20;;;;;;5089274;28;19927;-66
2022/05/03 00:57:57;;;;;;;;;;;24.20;36.30;;;;;;5101948;28;19974;-66
2022/05/03 01:00:24;;;;;;;;;;;24.20;36.30;;;;;;5107126;28;20415;-67
2022/05/03 01:02:59;;;;;;;;;;;24.10;36.30;;;;;;5106634;28;19924;-67
2022/05/03 01:05:27;;;;;;;;;;;24.10;36.30;;;;;;5106937;28;19924;-66
2022/05/03 01:08:05;;;;;;;;;;;24.10;36.40;;;;;;5106938;28;20001;-66
2022/05/03 01:10:34;;;;;;;;;;;24.10;36.40;;;;;;5107203;28;19928;-67
2022/05/03 01:13:19;;;;;;;;;;;24.10;36.50;;;;;;5107173;28;20043;-66
2022/05/03 01:15:48;;;;;;;;;;;24.10;37.00;;;;;;5107060;28;19924;-66
2022/05/03 01:18:26;;;;;;;;;;;24.10;36.50;;;;;;5106809;28;19924;-66
2022/05/03 01:21:13;;;;;;;;;;;24.10;36.50;;;;;;5107236;28;19996;-67
2022/05/03 01:24:00;;;;;;;;;;;24.10;36.50;;;;;;5092215;28;19928;-67
2022/05/03 01:26:47;;;;;;;;;;;24.10;36.60;;;;;;5091364;28;20427;-67
2022/05/03 01:29:28;;;;;;;;;;;24.10;36.50;;;;;;5087269;28;19984;-66
2022/05/03 01:31:59;;;;;;;;;;;24.10;36.60;;;;;;5107375;28;20283;-67
2022/05/03 01:34:27;;;;;;;;;;;24.10;36.60;;;;;;5106869;28;20512;-66
2022/05/03 01:37:00;;;;;;;;;;;24.10;36.60;;;;;;5106616;28;19973;-66
2022/05/03 01:39:47;;;;;;;;;;;24.10;36.60;;;;;;5106417;28;19928;-66
2022/05/03 01:42:34;;;;;;;;;;;24.10;36.60;;;;;;5107858;28;19923;-67
2022/05/03 01:45:07;;;;;;;;;;;24.10;36.60;;;;;;5110676;28;20208;-66
2022/05/03 01:47:51;;;;;;;;;;;24.10;36.50;;;;;;5110600;28;19924;-68
2022/05/03 01:50:38;;;;;;;;;;;24.10;36.60;;;;;;5110682;28;19924;-66
2022/05/03 01:53:21;;;;;;;;;;;24.10;36.50;;;;;;5110440;28;19928;-67
2022/05/03 01:56:03;;;;;;;;;;;24.10;36.50;;;;;;5110270;28;19927;-67
2022/05/03 01:58:50;;;;;;;;;;;24.10;36.50;;;;;;5109906;28;19969;-66
2022/05/03 02:01:37;;;;;;;;;;;24.10;36.50;;;;;;5105954;28;20291;-67
2022/05/03 02:04:24;;;;;;;;;;;24.10;36.50;;;;;;5109956;28;19931;-67
2022/05/03 02:07:11;;;;;;;;;;;24.10;36.50;;;;;;5110480;28;20019;-67
2022/05/03 02:09:57;;;;;;;;;;;24.10;36.60;;;;;;5110140;28;19932;-68
2022/05/03 02:12:25;;;;;;;;;;;24.10;36.50;;;;;;5077887;28;20361;-66
2022/05/03 02:14:53;;;;;;;;;;;24.10;36.60;;;;;;5109561;28;20399;-66
2022/05/03 02:17:40;;;;;;;;;;;24.10;36.60;;;;;;5109216;28;19976;-66
2022/05/03 02:20:17;;;;;;;;;;;24.10;36.60;;;;;;5110115;28;20401;-67
2022/05/03 02:23:05;;;;;;;;;;;24.10;36.60;;;;;;5109872;28;19974;-67
2022/05/03 02:25:52;;;;;;;;;;;24.10;36.60;;;;;;5094715;28;19928;-66
2022/05/03 02:28:39;;;;;;;;;;;24.10;36.60;;;;;;5094428;28;19979;-66
2022/05/03 02:31:08;;;;;;;;;;;24.10;36.60;;;;;;5108106;28;19928;-66
2022/05/03 02:33:43;;;;;;;;;;;24.10;36.60;;;;;;5106463;28;20373;-66
2022/05/03 02:36:15;;;;;;;;;;;24.10;36.60;;;;;;5109441;28;20367;-67
2022/05/03 02:39:02;;;;;;;;;;;24.00;36.60;;;;;;5109393;28;20108;-68
2022/05/03 02:41:34;;;;;;;;;;;24.00;36.70;;;;;;5109721;28;20040;-67
2022/05/03 02:44:02;;;;;;;;;;;24.00;36.70;;;;;;5109332;28;19927;-67
2022/05/03 02:46:49;;;;;;;;;;;24.00;36.70;;;;;;5109558;28;19928;-67
2022/05/03 02:49:22;;;;;;;;;;;24.00;36.70;;;;;;5094257;28;19989;-67
2022/05/03 02:52:07;;;;;;;;;;;24.00;36.80;;;;;;5109402;28;20022;-67
2022/05/03 02:54:54;;;;;;;;;;;24.00;36.90;;;;;;5107839;28;19931;-67
2022/05/03 02:57:37;;;;;;;;;;;24.00;36.90;;;;;;5093669;28;19969;-67
2022/05/03 03:02:58;;;;;;;;;;;24.00;36.90;;;;;;5107528;28;20346;-67
2022/05/03 03:05:27;;;;;;;;;;;23.90;36.90;;;;;;5105767;28;20329;-67
2022/05/03 03:07:57;;;;;;;;;;;24.00;37.00;;;;;;5108586;28;20466;-67
2022/05/03 03:10:30;;;;;;;;;;;24.00;37.00;;;;;;5108809;28;19931;-67
2022/05/03 03:13:05;;;;;;;;;;;23.90;37.00;;;;;;5108526;28;20000;-66
2022/05/03 03:15:37;;;;;;;;;;;24.00;37.10;;;;;;5108670;28;19967;-67
2022/05/03 03:18:06;;;;;;;;;;;23.90;37.10;;;;;;5108389;28;20018;-68
2022/05/03 03:20:36;;;;;;;;;;;23.90;37.10;;;;;;5108566;28;19923;-67
2022/05/03 03:23:03;;;;;;;;;;;23.90;37.20;;;;;;5108557;28;19970;-67
2022/05/03 03:25:30;;;;;;;;;;;23.90;37.20;;;;;;5108480;28;19973;-67
2022/05/03 03:27:58;;;;;;;;;;;23.90;37.20;;;;;;5108737;28;19928;-67
2022/05/03 03:30:25;;;;;;;;;;;23.90;37.30;;;;;;5108741;28;19966;-67
2022/05/03 03:32:56;;;;;;;;;;;23.90;37.30;;;;;;5108353;28;20215;-67
2022/05/03 03:35:24;;;;;;;;;;;24.00;37.30;;;;;;5103697;28;20369;-67
2022/05/03 03:37:51;;;;;;;;;;;24.00;37.30;;;;;;5108189;28;20439;-66
2022/05/03 03:40:19;;;;;;;;;;;24.00;37.30;;;;;;5107966;28;19976;-67
2022/05/03 03:42:47;;;;;;;;;;;24.00;37.30;;;;;;5108119;28;19923;-67
2022/05/03 03:45:15;;;;;;;;;;;24.00;37.80;;;;;;5108381;28;19956;-67
2022/05/03 03:47:43;;;;;;;;;;;24.00;37.30;;;;;;5108036;28;19947;-67
2022/05/03 03:50:10;;;;;;;;;;;24.00;37.30;;;;;;5108264;28;20422;-67
2022/05/03 03:52:39;;;;;;;;;;;24.00;37.30;;;;;;5108027;28;19931;-67
2022/05/03 03:55:07;;;;;;;;;;;24.00;37.30;;;;;;5107782;28;19928;-67
2022/05/03 03:57:37;;;;;;;;;;;24.00;37.30;;;;;;5108105;28;20356;-67
2022/05/03 04:00:05;;;;;;;;;;;24.00;37.30;;;;;;5108034;28;19931;-67
2022/05/03 04:02:33;;;;;;;;;;;24.00;37.30;;;;;;5108187;28;19932;-67
2022/05/03 04:05:00;;;;;;;;;;;24.00;37.30;;;;;;5107575;28;19952;-67
2022/05/03 04:07:27;;;;;;;;;;;24.00;37.30;;;;;;5103103;28;19995;-67
2022/05/03 04:09:54;;;;;;;;;;;24.00;37.30;;;;;;5107779;28;19924;-67
2022/05/03 04:12:21;;;;;;;;;;;24.00;37.30;;;;;;5107317;28;20407;-66
2022/05/03 04:14:48;;;;;;;;;;;24.00;37.30;;;;;;5108010;28;20371;-67
2022/05/03 04:17:15;;;;;;;;;;;24.00;37.30;;;;;;5089879;28;19924;-67
2022/05/03 04:19:43;;;;;;;;;;;24.00;37.30;;;;;;5107729;28;19923;-67
2022/05/03 04:22:24;;;;;;;;;;;24.10;37.40;;;;;;5107447;28;19984;-67
2022/05/03 04:24:51;;;;;;;;;;;24.00;37.30;;;;;;5107932;28;19932;-67
2022/05/03 04:27:18;;;;;;;;;;;24.00;37.30;;;;;;5107621;28;19923;-67
2022/05/03 04:29:45;;;;;;;;;;;24.10;37.30;;;;;;5107597;28;20373;-67
2022/05/03 04:32:12;;;;;;;;;;;24.10;37.30;;;;;;5089303;28;19931;-67
2022/05/03 04:34:39;;;;;;;;;;;24.10;37.30;;;;;;5107054;28;19923;-67
2022/05/03 04:37:07;;;;;;;;;;;24.10;37.30;;;;;;5105790;28;19971;-67
2022/05/03 04:39:33;;;;;;;;;;;24.10;37.30;;;;;;5104212;28;19924;-67
2022/05/03 04:42:01;;;;;;;;;;;24.10;37.30;;;;;;5106741;28;20019;-66
2022/05/03 04:44:27;;;;;;;;;;;24.10;37.30;;;;;;5107121;28;20376;-67
2022/05/03 04:46:54;;;;;;;;;;;24.10;37.40;;;;;;5106648;28;20432;-67
2022/05/03 04:49:21;;;;;;;;;;;24.10;37.40;;;;;;5087370;28;19932;-67
2022/05/03 04:51:49;;;;;;;;;;;24.10;37.40;;;;;;5078991;28;19978;-67
2022/05/03 04:54:16;;;;;;;;;;;24.10;37.40;;;;;;5081467;28;19928;-67
2022/05/03 04:56:49;;;;;;;;;;;24.10;37.40;;;;;;5071005;28;19924;-66
2022/05/03 04:59:16;;;;;;;;;;;24.20;37.40;;;;;;5073235;28;19996;-67
2022/05/03 05:01:43;;;;;;;;;;;24.20;37.40;;;;;;5084397;28;19954;-67
2022/05/03 05:04:10;;;;;;;;;;;24.20;37.30;;;;;;5086140;28;19939;-67
2022/05/03 05:06:37;;;;;;;;;;;24.30;37.30;;;;;;5082926;28;20414;-67
2022/05/03 05:09:04;;;;;;;;;;;24.30;37.30;;;;;;5082882;28;20376;-67
2022/05/03 05:11:30;;;;;;;;;;;24.30;37.40;;;;;;5075741;28;19958;-67
2022/05/03 05:13:57;;;;;;;;;;;24.40;37.40;;;;;;5090025;28;19924;-66
2022/05/03 05:16:24;;;;;;;;;;;24.40;37.40;;;;;;5084943;28;19923;-67
2022/05/03 05:18:52;;;;;;;;;;;24.40;37.40;;;;;;5087605;28;20015;-67
2022/05/03 05:21:19;;;;;;;;;;;24.50;37.50;;;;;;5087169;28;19928;-68
2022/05/03 05:23:46;;;;;;;;;;;24.50;37.50;;;;;;5080767;28;19962;-67
2022/05/03 05:26:14;;;;;;;;;;;24.50;37.40;;;;;;5084973;28;19925;-67
2022/05/03 05:28:42;;;;;;;;;;;24.50;37.50;;;;;;5082321;28;19928;-67
2022/05/03 05:31:10;;;;;;;;;;;24.60;37.80;;;;;;5089840;28;19924;-66
2022/05/03 05:33:37;;;;;;;;;;;24.50;38.20;;;;;;5084572;28;19974;-66
2022/05/03 05:36:04;;;;;;;;;;;24.60;38.20;;;;;;5087712;28;20383;-64
2022/05/03 05:38:31;;;;;;;;;;;24.60;38.30;;;;;;5085557;28;19928;-68
2022/05/03 05:40:58;;;;;;;;;;;24.60;38.30;;;;;;5064634;28;19951;-70
2022/05/03 05:43:26;;;;;;;;;;;24.70;38.40;;;;;;5061527;28;19955;-67
2022/05/03 05:45:53;;;;;;;;;;;24.70;38.20;;;;;;5081377;28;19931;-67
2022/05/03 05:48:20;;;;;;;;;;;24.70;38.20;;;;;;5077494;28;19925;-68
2022/05/03 05:50:47;;;;;;;;;;;24.70;38.20;;;;;;5083587;28;19996;-69
2022/05/03 05:56:03;;;;;;;;;;;24.80;37.90;;;;;;5082379;28;19975;-68
2022/05/03 05:58:30;;;;;;;;;;;24.90;37.90;;;;;;5079878;28;20198;-68
2022/05/03 06:00:58;;;;;;;;;;;24.90;38.00;;;;;;5070426;28;19932;-70
2022/05/03 06:03:27;;;;;;;;;;;24.90;38.10;;;;;;5065630;28;20331;-67
2022/05/03 06:05:56;;;;;;;;;;;24.90;38.10;;;;;;5076234;28;19986;-67
2022/05/03 06:08:24;;;;;;;;;;;25.00;38.10;;;;;;5065897;28;19928;-67
2022/05/03 06:10:51;;;;;;;;;;;25.00;38.10;;;;;;5078897;28;19924;-69
2022/05/03 06:13:19;;;;;;;;;;;25.00;38.00;;;;;;5076505;28;19932;-67
2022/05/03 06:15:48;;;;;;;;;;;25.10;38.20;;;;;;5083582;28;19936;-67
2022/05/03 06:18:16;;;;;;;;;;;25.10;38.10;;;;;;5080504;28;20389;-65
2022/05/03 06:20:43;;;;;;;;;;;25.10;38.00;;;;;;5083099;28;19978;-67
2022/05/03 06:23:12;;;;;;;;;;;25.10;38.00;;;;;;5073041;28;20022;-66
2022/05/03 06:25:39;;;;;;;;;;;25.20;38.00;;;;;;5082566;28;19986;-65
2022/05/03 06:28:06;;;;;;;;;;;25.20;37.90;;;;;;5076068;28;19985;-66
2022/05/03 06:30:34;;;;;;;;;;;25.20;37.80;;;;;;5077668;28;19963;-65
2022/05/03 06:33:01;;;;;;;;;;;25.30;37.80;;;;;;5061061;28;19978;-65
2022/05/03 06:35:28;;;;;;;;;;;25.30;37.70;;;;;;5085549;28;19932;-64
2022/05/03 06:37:55;;;;;;;;;;;25.30;37.60;;;;;;5081428;28;19963;-65
2022/05/03 06:40:22;;;;;;;;;;;25.40;37.60;;;;;;5073931;28;20346;-64
2022/05/03 06:42:50;;;;;;;;;;;25.40;37.40;;;;;;5079409;28;20347;-68
2022/05/03 06:45:18;;;;;;;;;;;25.40;37.40;;;;;;5081231;28;19924;-70
2022/05/03 06:47:47;;;;;;;;;;;25.50;37.30;;;;;;5079856;28;19931;-70
2022/05/03 06:50:15;;;;;;;;;;;25.50;37.30;;;;;;5072010;28;19932;-65
2022/05/03 06:53:01;;;;;;;;;;;25.60;37.30;;;;;;5076965;28;19970;-70
2022/05/03 06:55:28;;;;;;;;;;;25.60;37.40;;;;;;5078823;28;19965;-67
2022/05/03 06:57:56;;;;;;;;;;;25.70;37.30;;;;;;5074500;28;20380;-66
2022/05/03 07:00:23;;;;;;;;;;;25.70;37.20;;;;;;5085193;27;19990;-67
2022/05/03 07:02:50;;;;;;;;;;;25.70;36.90;;;;;;5078796;28;19924;-67
2022/05/03 07:05:18;;;;;;;;;;;25.70;36.60;;;;;;5076391;28;20284;-64
2022/05/03 07:07:45;;;;;;;;;;;25.80;36.50;;;;;;5080510;28;19973;-63
2022/05/03 07:10:12;;;;;;;;;;;25.80;36.30;;;;;;5077548;28;19931;-68
2022/05/03 07:12:39;;;;;;;;;;;25.80;36.30;;;;;;5069273;28;20349;-68
2022/05/03 07:15:07;;;;;;;;;;;25.90;36.30;;;;;;5081189;28;19940;-70
2022/05/03 07:23:11;;;;;;;;;;;25.90;35.90;;;;;;5076176;28;19963;-66
2022/05/03 07:25:38;;;;;;;;;;;26.00;35.80;;;;;;5085610;28;19932;-64
2022/05/03 07:28:06;;;;;;;;;;;26.00;35.70;;;;;;5074725;28;19977;-65
2022/05/03 07:30:34;;;;;;;;;;;26.00;35.80;;;;;;5079083;28;19989;-65
2022/05/03 07:33:01;;;;;;;;;;;26.00;35.70;;;;;;5073230;28;19967;-66
2022/05/03 07:35:29;;;;;;;;;;;26.00;35.60;;;;;;5071785;28;19932;-65
2022/05/03 07:37:57;;;;;;;;;;;26.00;35.70;;;;;;5079948;28;20334;-63
2022/05/03 07:40:24;;;;;;;;;;;26.10;35.70;;;;;;5075111;28;20387;-64
2022/05/03 07:42:51;;;;;;;;;;;26.10;35.60;;;;;;5083812;28;19928;-66
2022/05/03 07:45:18;;;;;;;;;;;26.20;35.70;;;;;;5074171;28;19982;-62
2022/05/03 07:47:45;;;;;;;;;;;26.10;35.50;;;;;;5070506;28;19929;-62
2022/05/03 07:50:13;;;;;;;;;;;26.20;35.50;;;;;;5075701;28;19928;-67
2022/05/03 07:52:40;;;;;;;;;;;26.20;35.30;;;;;;5052860;28;21394;-66
2022/05/03 07:55:08;;;;;;;;;;;26.20;35.10;;;;;;5079649;28;19928;-63
2022/05/03 07:57:35;;;;;;;;;;;26.30;35.00;;;;;;5074613;28;19931;-68
2022/05/03 08:00:03;;;;;;;;;;;26.30;34.90;;;;;;5079856;28;19924;-62
2022/05/03 08:02:31;;;;;;;;;;;26.30;34.90;;;;;;5071718;28;19977;-68
2022/05/03 08:04:58;;;;;;;;;;;26.40;34.90;;;;;;5075876;28;20054;-68
2022/05/03 08:07:25;;;;;;;;;;;26.40;34.70;;;;;;5079078;28;20015;-68
2022/05/03 08:09:53;;;;;;;;;;;26.40;34.50;;;;;;5078632;28;20631;-67
2022/05/03 08:12:22;;;;;;;;;;;26.40;34.60;;;;;;5078430;28;20437;-67
2022/05/03 08:14:51;;;;;;;;;;;26.40;34.50;;;;;;5075343;28;20308;-68
2022/05/03 08:17:17;;;;;;;;;;;26.40;34.40;;;;;;5076679;28;19966;-69
2022/05/03 08:19:45;;;;;;;;;;;26.40;34.40;;;;;;5064061;28;19950;-69
2022/05/03 08:22:14;;;;;;;;;;;26.50;34.30;;;;;;5075171;28;21287;-67
2022/05/03 08:24:42;;;;;;;;;;;26.50;34.30;;;;;;5079062;28;20325;-69
2022/05/03 08:27:09;;;;;;;;;;;26.50;34.20;;;;;;5077092;28;19985;-70
2022/05/03 08:29:39;;;;;;;;;;;26.50;34.30;;;;;;5074330;28;20307;-67
2022/05/03 08:32:06;;;;;;;;;;;26.50;34.10;;;;;;5077619;28;20311;-67
2022/05/03 08:34:34;;;;;;;;;;;26.50;34.00;;;;;;5076561;28;19993;-66
2022/05/03 08:42:35;;;;;;;;;;;26.60;33.80;;;;;;5076850;28;19927;-66
2022/05/03 08:45:02;;;;;;;;;;;26.60;32.80;;;;;;5072900;28;19932;-69
2022/05/03 08:47:31;;;;;;;;;;;26.60;31.70;;;;;;5073759;28;20217;-69
2022/05/03 08:50:06;;;;;;;;;;;26.50;30.90;;;;;;5078297;28;19946;-67
2022/05/03 08:52:41;;;;;;;;;;;26.40;30.60;;;;;;5082883;28;19939;-66
2022/05/03 08:55:11;;;;;;;;;;;26.40;31.30;;;;;;5076013;28;19936;-65
2022/05/03 08:57:40;;;;;;;;;;;26.40;30.80;;;;;;5076664;28;20396;-65
2022/05/03 09:00:08;;;;;;;;;;;26.40;31.30;;;;;;5076479;28;19928;-65
2022/05/03 09:02:40;;;;;;;;;;;26.40;31.10;;;;;;5074750;28;20372;-63
2022/05/03 09:05:08;;;;;;;;;;;26.40;31.60;;;;;;5072037;28;19935;-64
2022/05/03 09:07:36;;;;;;;;;;;26.40;32.10;;;;;;5077027;28;19931;-69
2022/05/03 09:10:22;;;;;;;;;;;26.40;31.70;;;;;;5072623;28;19982;-67
2022/05/03 09:12:50;;;;;;;;;;;26.40;31.90;;;;;;5075444;28;20045;-66
2022/05/03 09:15:30;;;;;;;;;;;26.40;32.00;;;;;;5077958;28;19936;-66
2022/05/03 09:17:59;;;;;;;;;;;26.40;32.20;;;;;;5074868;28;19986;-65
2022/05/03 09:26:13;;;;;;;;;;;26.40;32.60;;;;;;5072074;28;19924;-73
2022/05/03 09:28:45;;;;;;;;;;;26.40;32.80;;;;;;5079176;28;19935;-65
2022/05/03 09:31:13;;;;;;;;;;;26.40;32.00;;;;;;5076599;28;19977;-66
2022/05/03 09:33:40;;;;;;;;;;;26.40;30.90;;;;;;5075178;28;19924;-69
2022/05/03 09:36:08;;;;;;;;;;;26.40;32.90;;;;;;5077172;28;19964;-67
2022/05/03 09:38:48;;;;;;;;;;;26.50;33.40;;;;;;5071516;28;20375;-71
2022/05/03 09:41:16;;;;;;;;;;;26.50;33.10;;;;;;5074790;28;19928;-65
2022/05/03 09:43:59;;;;;;;;;;;26.60;32.40;;;;;;5071314;28;20364;-69
2022/05/03 09:46:27;;;;;;;;;;;26.60;32.80;;;;;;5070314;28;19928;-64
2022/05/03 09:48:55;;;;;;;;;;;26.60;31.30;;;;;;5078793;28;20452;-68
2022/05/03 09:51:23;;;;;;;;;;;26.60;31.90;;;;;;5073713;28;19977;-65
2022/05/03 09:53:56;;;;;;;;;;;26.60;30.80;;;;;;5072987;28;20346;-65
2022/05/03 09:56:25;;;;;;;;;;;26.60;31.30;;;;;;5077752;28;19974;-64
2022/05/03 09:58:55;;;;;;;;;;;26.60;30.90;;;;;;5073927;28;20784;-69
2022/05/03 10:01:23;;;;;;;;;;;26.70;31.40;;;;;;5073376;28;19947;-67
2022/05/03 10:03:51;;;;;;;;;;;26.70;31.70;;;;;;5080881;28;20392;-64
2022/05/03 10:06:20;;;;;;;;;;;26.70;31.90;;;;;;5081171;28;20027;-69
2022/05/03 10:08:48;;;;;;;;;;;26.70;30.70;;;;;;5081235;28;19957;-68
2022/05/03 10:11:16;;;;;;;;;;;26.70;30.70;;;;;;5079199;28;20379;-67
2022/05/03 10:13:43;;;;;;;;;;;26.80;30.90;;;;;;5077444;28;19932;-66
2022/05/03 10:21:50;;;;;;;;;;;26.70;31.00;;;;;;5088066;28;19925;-66
2022/05/03 10:24:17;;;;;;;;;;;26.80;30.40;;;;;;5071557;28;19939;-66
2022/05/03 10:26:58;;;;;;;;;;;26.80;30.30;;;;;;5080803;28;19932;-66
2022/05/03 10:29:26;;;;;;;;;;;26.80;30.60;;;;;;5077459;28;20380;-65
2022/05/03 10:31:56;;;;;;;;;;;26.90;31.40;;;;;;5077853;28;20001;-63
2022/05/03 10:34:43;;;;;;;;;;;26.90;31.90;;;;;;5084397;28;19974;-67
2022/05/03 10:37:11;;;;;;;;;;;26.90;32.00;;;;;;5080160;28;19954;-66
2022/05/03 10:39:47;;;;;;;;;;;26.90;32.00;;;;;;5058404;28;19928;-65
2022/05/03 10:42:15;;;;;;;;;;;27.00;32.00;;;;;;5081399;28;19935;-67
2022/05/03 10:44:55;;;;;;;;;;;27.00;32.10;;;;;;5072566;28;19928;-64
2022/05/03 10:47:42;;;;;;;;;;;27.00;32.20;;;;;;5078118;28;19927;-65
2022/05/03 10:50:21;;;;;;;;;;;27.00;32.20;;;;;;5071637;28;20026;-64
2022/05/03 10:53:08;;;;;;;;;;;27.10;31.90;;;;;;5081180;28;20417;-63
2022/05/03 10:55:37;;;;;;;;;;;27.00;31.50;;;;;;5070908;28;19928;-63
2022/05/03 10:58:19;;;;;;;;;;;27.00;30.50;;;;;;5071697;28;20806;-63
2022/05/03 11:01:07;;;;;;;;;;;27.10;30.40;;;;;;5079622;28;19932;-63
2022/05/03 11:03:41;;;;;;;;;;;27.10;30.50;;;;;;5069931;28;20039;-66
2022/05/03 11:06:28;;;;;;;;;;;27.00;30.20;;;;;;5072973;28;19971;-66
2022/05/03 11:09:09;;;;;;;;;;;27.00;30.50;;;;;;5068748;28;20528;-66
2022/05/03 11:11:50;;;;;;;;;;;27.00;30.70;;;;;;5078032;28;19932;-63
2022/05/03 11:14:37;;;;;;;;;;;26.90;30.20;;;;;;5074651;28;19932;-67
2022/05/03 11:17:11;;;;;;;;;;;26.90;30.50;;;;;;5076569;28;19924;-65
2022/05/03 11:19:49;;;;;;;;;;;26.90;30.20;;;;;;5080040;28;20010;-70
2022/05/03 11:22:19;;;;;;;;;;;26.90;30.50;;;;;;5081534;28;20433;-67
2022/05/03 11:24:47;;;;;;;;;;;26.80;30.30;;;;;;5077195;28;19975;-64
2022/05/03 11:27:15;;;;;;;;;;;26.80;30.00;;;;;;5077626;28;19928;-66
2022/05/03 11:29:47;;;;;;;;;;;26.90;30.50;;;;;;5074320;28;20011;-65
2022/05/03 11:32:16;;;;;;;;;;;26.90;30.20;;;;;;5079122;28;20128;-62
2022/05/03 11:34:43;;;;;;;;;;;27.00;30.60;;;;;;5078980;28;19928;-62
2022/05/03 11:37:10;;;;;;;;;;;27.00;31.00;;;;;;5080186;28;20296;-60
2022/05/03 11:39:37;;;;;;;;;;;27.10;31.00;;;;;;5088621;28;19975;-60
2022/05/03 11:42:06;;;;;;;;;;;27.10;31.00;;;;;;5076435;28;19939;-64
2022/05/03 11:44:34;;;;;;;;;;;27.20;31.00;;;;;;5078360;28;20283;-66
2022/05/03 11:47:03;;;;;;;;;;;27.20;31.10;;;;;;5075915;28;19924;-63
2022/05/03 11:49:31;;;;;;;;;;;27.30;31.20;;;;;;5076349;28;19986;-63
2022/05/03 11:57:40;;;;;;;;;;;27.30;31.00;;;;;;5075106;28;19950;-67
2022/05/03 12:00:11;;;;;;;;;;;27.40;30.90;;;;;;5073523;28;20319;-64
2022/05/03 12:02:40;;;;;;;;;;;27.40;31.10;;;;;;5077831;28;20388;-65
2022/05/03 12:05:11;;;;;;;;;;;27.40;30.40;;;;;;5077456;28;20421;-65
2022/05/03 12:07:39;;;;;;;;;;;27.40;30.70;;;;;;5079137;28;19935;-64
2022/05/03 12:10:14;;;;;;;;;;;27.40;30.90;;;;;;5080612;28;19947;-64
2022/05/03 12:12:44;;;;;;;;;;;27.40;30.90;;;;;;5082948;28;19932;-65
2022/05/03 12:15:21;;;;;;;;;;;27.40;30.80;;;;;;5076953;28;20009;-64
2022/05/03 12:17:56;;;;;;;;;;;27.40;30.80;;;;;;5077550;28;20414;-66
2022/05/03 12:20:23;;;;;;;;;;;27.40;30.90;;;;;;5075604;28;19932;-65
2022/05/03 12:23:10;;;;;;;;;;;27.40;31.10;;;;;;5077060;28;19967;-66
2022/05/03 12:25:38;;;;;;;;;;;27.50;31.00;;;;;;5074823;28;20388;-66
2022/05/03 12:28:05;;;;;;;;;;;27.40;31.40;;;;;;5079903;28;19964;-67
2022/05/03 12:30:33;;;;;;;;;;;27.40;32.00;;;;;;5079932;28;19936;-67
2022/05/03 12:33:01;;;;;;;;;;;27.50;32.40;;;;;;5072104;28;20061;-66
2022/05/03 12:35:29;;;;;;;;;;;27.50;32.80;;;;;;5077109;28;19928;-69
2022/05/03 12:37:57;;;;;;;;;;;27.50;33.60;;;;;;5080497;28;20403;-66
2022/05/03 12:40:27;;;;;;;;;;;27.50;33.90;;;;;;5083993;28;20012;-73
2022/05/03 12:42:54;;;;;;;;;;;27.50;34.00;;;;;;5071982;28;19932;-65
2022/05/03 12:45:29;;;;;;;;;;;27.50;34.30;;;;;;5075523;28;19985;-68
2022/05/03 12:47:56;;;;;;;;;;;27.50;34.40;;;;;;5079128;28;19928;-68
2022/05/03 12:50:23;;;;;;;;;;;27.50;34.40;;;;;;5080396;28;21703;-66
2022/05/03 12:52:50;;;;;;;;;;;27.50;34.50;;;;;;5058929;28;19939;-70
2022/05/03 12:55:19;;;;;;;;;;;27.50;34.40;;;;;;5082522;28;19928;-68
2022/05/03 13:00:36;;;;;;;;;;;27.50;34.20;;;;;;5080106;28;20386;-70
2022/05/03 13:09:11;;;;;;;;;;;27.60;34.70;;;;;;5740960;22;19974;-72
2022/05/03 13:11:38;;;;;;;;;;;27.60;34.70;;;;;;5076566;28;19963;-63
2022/05/03 13:14:06;;;;;;;;;;;27.60;34.70;;;;;;5075966;28;19932;-66
2022/05/03 13:16:33;;;;;;;;;;;27.60;34.80;;;;;;5076810;28;19932;-72
2022/05/03 13:19:00;;;;;;;;;;;27.60;35.00;;;;;;5076447;28;19924;-64
2022/05/03 13:21:35;;;;;;;;;;;27.70;35.30;;;;;;5076774;28;19925;-71
2022/05/03 13:24:04;;;;;;;;;;;27.70;35.30;;;;;;5075203;28;19924;-69
2022/05/03 13:26:32;;;;;;;;;;;27.70;35.20;;;;;;5076283;28;19925;-63
2022/05/03 13:29:01;;;;;;;;;;;27.70;35.10;;;;;;5076582;28;19931;-73
2022/05/03 13:31:28;;;;;;;;;;;27.80;35.20;;;;;;5076443;28;19983;-64
2022/05/03 13:34:08;;;;;;;;;;;27.80;35.30;;;;;;5072165;28;19982;-64
2022/05/03 13:47:13;;;;;;;;;;;27.80;35.00;;;;;;5065494;28;19927;-65
2022/05/03 13:50:03;;;;;;;;;;;27.80;35.10;;;;;;5067874;28;19920;-65
2022/05/03 13:53:07;;;;;;;;;;;27.80;35.10;;;;;;5063733;28;20347;-64
2022/05/03 13:55:38;;;;;;;;;;;27.80;35.00;;;;;;5071071;28;19974;-70
2022/05/03 14:05:32;;;;;;;;;;;27.50;31.90;;;;;;5063212;28;19928;-69
2022/05/03 14:07:59;;;;;;;;;;;27.30;31.40;;;;;;5079387;28;19924;-70
2022/05/03 14:10:26;;;;;;;;;;;27.20;31.70;;;;;;5058241;28;19920;-72
2022/05/03 14:12:53;;;;;;;;;;;27.00;31.60;;;;;;5059053;28;19994;-70
2022/05/03 14:15:20;;;;;;;;;;;26.90;32.50;;;;;;5059554;28;20392;-68
2022/05/03 14:17:47;;;;;;;;;;;26.80;32.60;;;;;;5061534;28;19928;-65
2022/05/03 14:20:15;;;;;;;;;;;26.70;32.50;;;;;;5071466;28;20069;-64
2022/05/03 14:22:41;;;;;;;;;;;26.50;32.10;;;;;;5073207;28;19934;-73
2022/05/03 14:32:31;;;;;;;;;;;26.40;33.10;;;;;;5055303;28;19920;-72
2022/05/03 14:34:58;;;;;;;;;;;26.50;33.40;;;;;;5078716;28;20315;-70
2022/05/03 14:37:27;;;;;;;;;;;26.60;33.50;;;;;;5069288;28;19928;-71
2022/05/03 14:39:56;;;;;;;;;;;26.60;33.50;;;;;;5063468;28;19966;-76
2022/05/03 14:45:46;;;;;;;;;;;26.80;33.70;;;;;;5067150;28;19919;-76
2022/05/03 14:48:14;;;;;;;;;;;26.90;33.70;;;;;;5069890;28;19928;-76
2022/05/03 14:50:41;;;;;;;;;;;26.90;33.60;;;;;;5062870;28;20325;-76
2022/05/03 14:53:10;;;;;;;;;;;26.90;33.60;;;;;;5056281;28;19931;-76
2022/05/03 14:55:37;;;;;;;;;;;27.00;33.60;;;;;;5053243;28;19932;-70
2022/05/03 15:03:38;;;;;;;;;;;27.10;33.60;;;;;;5051040;28;20004;-77
2022/05/03 15:06:05;;;;;;;;;;;27.10;33.60;;;;;;5051034;28;19994;-75
2022/05/03 15:08:32;;;;;;;;;;;27.10;33.80;;;;;;5050535;28;20324;-74
2022/05/03 15:10:59;;;;;;;;;;;27.10;34.00;;;;;;5061561;28;20330;-75
2022/05/03 15:13:26;;;;;;;;;;;27.10;34.20;;;;;;5050790;28;19924;-69
2022/05/03 15:15:53;;;;;;;;;;;27.20;34.40;;;;;;5065327;28;20426;-74
2022/05/03 15:18:21;;;;;;;;;;;27.10;34.70;;;;;;5051520;28;19929;-75
2022/05/03 15:20:49;;;;;;;;;;;27.20;35.10;;;;;;5049719;28;19940;-74
2022/05/03 15:26:03;;;;;;;;;;;27.20;34.80;;;;;;5051461;28;20393;-72
2022/05/03 15:28:30;;;;;;;;;;;27.10;34.80;;;;;;5050574;28;20347;-76
2022/05/03 15:30:58;;;;;;;;;;;27.10;36.20;;;;;;5051170;28;19990;-76
2022/05/03 15:33:25;;;;;;;;;;;27.20;39.50;;;;;;5051416;28;19925;-76
2022/05/03 15:35:52;;;;;;;;;;;27.20;39.60;;;;;;5051446;28;19933;-76
2022/05/03 15:38:19;;;;;;;;;;;27.20;38.40;;;;;;5050918;28;19951;-76
2022/05/03 15:40:49;;;;;;;;;;;27.20;37.80;;;;;;5048907;28;19925;-77
2022/05/03 15:43:16;;;;;;;;;;;27.20;38.60;;;;;;5048324;28;19994;-73
2022/05/03 15:45:43;;;;;;;;;;;27.20;38.30;;;;;;5050058;28;19932;-75
2022/05/03 15:48:10;;;;;;;;;;;27.20;37.50;;;;;;5071273;28;19924;-74
2022/05/03 15:50:37;;;;;;;;;;;27.20;36.80;;;;;;5071118;28;19929;-74
2022/05/03 15:53:04;;;;;;;;;;;27.20;36.40;;;;;;5070963;28;19951;-74
2022/05/03 15:55:31;;;;;;;;;;;27.20;36.10;;;;;;5070479;28;19970;-73
2022/05/03 15:57:58;;;;;;;;;;;27.20;36.00;;;;;;5070901;28;19971;-73
2022/05/03 16:00:25;;;;;;;;;;;27.20;35.80;;;;;;5070508;28;20171;-74